createdAt,value
2022-08-23T00:00:52.439Z,100513.53
2022-08-23T00:03:20.364Z,100515.06
2022-08-23T00:05:47.812Z,100519.56
2022-08-23T00:08:15.509Z,100518.00
2022-08-23T00:10:42.966Z,100519.06
2022-08-23T00:13:10.522Z,100519.78
2022-08-23T00:15:38.013Z,100519.78
2022-08-23T00:18:05.515Z,100523.19
2022-08-23T00:20:33.236Z,100528.38
2022-08-23T00:23:00.653Z,100536.03
2022-08-23T00:25:28.375Z,100533.56
2022-08-23T00:27:55.876Z,100532.44
2022-08-23T00:30:23.922Z,100537.03
2022-08-23T00:32:51.423Z,100539.88
2022-08-23T00:35:27.224Z,100539.22
2022-08-23T00:38:33.014Z,100559.22
2022-08-23T00:40:45.507Z,100547.72
2022-08-23T00:43:32.466Z,100551.81
2022-08-23T00:46:18.686Z,100545.34
2022-08-23T00:48:46.214Z,100547.84
2022-08-23T00:51:17.612Z,100550.84
2022-08-23T00:53:47.026Z,100549.28
2022-08-23T00:56:15.338Z,100552.13
2022-08-23T00:58:43.074Z,100559.16
2022-08-23T01:01:10.499Z,100563.19
2022-08-23T01:03:39.134Z,100572.66
2022-08-23T01:06:11.709Z,100572.72
2022-08-23T01:08:39.696Z,100565.63
2022-08-23T01:11:08.927Z,100569.38
2022-08-23T01:13:38.120Z,100574.72
2022-08-23T01:16:07.605Z,100573.03
2022-08-23T01:18:35.276Z,100575.28
2022-08-23T01:21:13.789Z,100567.59
2022-08-23T01:23:45.828Z,100575.22
2022-08-23T01:26:14.749Z,100578.50
2022-08-23T01:28:51.068Z,100571.03
2022-08-23T01:31:18.794Z,100580.13
2022-08-23T01:33:50.591Z,100574.56
2022-08-23T01:36:18.243Z,100582.56
2022-08-23T01:38:48.945Z,100587.91
2022-08-23T01:41:17.178Z,100581.16
2022-08-23T01:43:45.227Z,100582.53
2022-08-23T01:46:15.109Z,100585.53
2022-08-23T01:48:42.502Z,100586.91
2022-08-23T01:51:09.945Z,100582.19
2022-08-23T01:53:38.120Z,100591.06
2022-08-23T01:56:05.669Z,100587.25
2022-08-23T01:58:36.460Z,100588.47
2022-08-23T02:01:04.897Z,100591.78
2022-08-23T02:03:33.865Z,100589.31
2022-08-23T02:06:01.750Z,100584.66
2022-08-23T02:08:48.055Z,100598.13
2022-08-23T02:11:20.409Z,100597.69
2022-08-23T02:13:48.456Z,100593.34
2022-08-23T02:16:29.043Z,100591.19
2022-08-23T02:18:56.861Z,100602.16
2022-08-23T02:21:24.506Z,100597.53
2022-08-23T02:23:51.908Z,100602.50
2022-08-23T02:26:19.700Z,100604.03
2022-08-23T02:28:50.247Z,100611.50
2022-08-23T02:31:18.536Z,100608.88
2022-08-23T02:33:48.519Z,100613.34
2022-08-23T02:38:50.528Z,100623.50
2022-08-23T02:41:18.046Z,100615.34
2022-08-23T02:43:45.983Z,100631.00
2022-08-23T02:46:13.469Z,100630.81
2022-08-23T02:48:41.081Z,100636.97
2022-08-23T02:51:09.944Z,100642.78
2022-08-23T02:53:37.352Z,100650.59
2022-08-23T02:56:21.240Z,100647.28
2022-08-23T02:58:54.238Z,100650.59
2022-08-23T03:01:25.331Z,100656.09
2022-08-23T03:03:54.780Z,100663.19
2022-08-23T03:06:24.838Z,100651.53
2022-08-23T03:08:54.465Z,100661.84
2022-08-23T03:11:22.512Z,100668.50
2022-08-23T03:13:52.656Z,100658.34
2022-08-23T03:16:20.851Z,100683.75
2022-08-23T03:18:48.599Z,100670.66
2022-08-23T03:21:16.235Z,100675.66
2022-08-23T03:23:43.787Z,100669.31
2022-08-23T03:26:12.444Z,100679.47
2022-08-23T03:28:40.315Z,100685.59
2022-08-23T03:31:09.040Z,100684.16
2022-08-23T03:33:46.115Z,100687.81
2022-08-23T03:36:13.751Z,100682.50
2022-08-23T03:38:41.727Z,100705.41
2022-08-23T03:41:10.840Z,100700.41
2022-08-23T03:43:38.617Z,100703.03
2022-08-23T03:46:06.568Z,100687.81
2022-08-23T03:48:37.704Z,100700.63
2022-08-23T03:51:05.609Z,100704.44
2022-08-23T03:53:34.202Z,100700.47
2022-08-23T03:56:02.795Z,100706.78
2022-08-23T03:58:30.466Z,100716.59
2022-08-23T04:00:58.069Z,100708.78
2022-08-23T04:03:26.915Z,100708.44
2022-08-23T04:06:00.688Z,100714.94
2022-08-23T04:08:33.777Z,100716.91
2022-08-23T04:11:04.370Z,100720.91
2022-08-23T04:13:32.473Z,100715.25
2022-08-23T04:16:03.670Z,100715.09
2022-08-23T04:18:32.256Z,100718.41
2022-08-23T04:21:01.576Z,100718.28
2022-08-23T04:23:29.306Z,100721.59
2022-08-23T04:25:57.690Z,100719.63
2022-08-23T04:28:26.705Z,100719.25
2022-08-23T04:30:55.402Z,100729.91
2022-08-23T04:33:24.672Z,100721.78
2022-08-23T04:35:52.133Z,100717.78
2022-08-23T04:38:24.866Z,100724.75
2022-08-23T04:41:18.710Z,100726.44
2022-08-23T04:43:47.525Z,100733.75
2022-08-23T04:46:15.625Z,100736.41
2022-08-23T04:48:45.142Z,100733.59
2022-08-23T04:51:12.842Z,100735.28
2022-08-23T04:53:41.233Z,100733.94
2022-08-23T04:56:28.517Z,100735.09
2022-08-23T04:58:56.179Z,100730.44
2022-08-23T05:01:25.673Z,100739.44
2022-08-23T05:03:55.463Z,100739.25
2022-08-23T05:06:25.097Z,100747.22
2022-08-23T05:08:53.342Z,100745.72
2022-08-23T05:11:20.982Z,100740.06
2022-08-23T05:13:50.193Z,100746.53
2022-08-23T05:16:17.851Z,100757.22
2022-08-23T05:19:00.236Z,100744.00
2022-08-23T05:21:27.863Z,100742.03
2022-08-23T05:23:55.933Z,100738.31
2022-08-23T05:26:26.507Z,100746.47
2022-08-23T05:28:54.389Z,100739.91
2022-08-23T05:31:27.644Z,100746.25
2022-08-23T05:33:59.296Z,100737.84
2022-08-23T05:36:48.900Z,100746.47
2022-08-23T05:39:36.663Z,100756.13
2022-08-23T05:42:08.056Z,100758.50
2022-08-23T05:44:38.001Z,100758.97
2022-08-23T05:47:11.109Z,100743.28
2022-08-23T05:49:57.510Z,100740.63
2022-08-23T05:52:26.579Z,100768.91
2022-08-23T05:54:54.035Z,100762.53
2022-08-23T05:57:40.884Z,100757.56
2022-08-23T06:00:11.359Z,100750.41
2022-08-23T06:02:46.637Z,100751.66
2022-08-23T06:05:15.045Z,100756.31
2022-08-23T06:07:44.440Z,100753.97
2022-08-23T06:10:16.151Z,100766.66
2022-08-23T06:12:51.723Z,100761.34
2022-08-23T06:15:20.316Z,100762.47
2022-08-23T06:17:47.857Z,100762.72
2022-08-23T06:20:16.279Z,100780.16
2022-08-23T06:23:06.200Z,100765.72
2022-08-23T06:25:38.547Z,100780.31
2022-08-23T06:28:14.993Z,100763.19
2022-08-23T06:30:43.217Z,100761.56
2022-08-23T06:33:21.075Z,100779.47
2022-08-23T06:36:08.068Z,100777.91
2022-08-23T06:39:09.160Z,100778.84
2022-08-23T06:42:22.232Z,100765.81
2022-08-23T06:45:01.434Z,100770.38
2022-08-23T06:47:40.408Z,100780.03
2022-08-23T06:50:09.454Z,100791.41
2022-08-23T06:52:55.339Z,100787.03
2022-08-23T06:55:40.620Z,100776.47
2022-08-23T06:58:22.462Z,100782.47
2022-08-23T07:01:28.551Z,100778.06
2022-08-23T07:04:05.533Z,100796.09
2022-08-23T07:06:51.758Z,100791.31
2022-08-23T07:09:19.302Z,100786.97
2022-08-23T07:11:49.210Z,100785.31
2022-08-23T07:14:17.616Z,100816.94
2022-08-23T07:16:52.297Z,100805.88
2022-08-23T07:19:20.815Z,100799.53
2022-08-23T07:21:49.383Z,100802.06
2022-08-23T07:24:18.439Z,100814.97
2022-08-23T07:26:46.534Z,100803.81
2022-08-23T07:29:14.123Z,100807.91
2022-08-23T07:31:42.846Z,100803.25
2022-08-23T07:34:11.441Z,100808.06
2022-08-23T07:36:42.402Z,100828.03
2022-08-23T07:39:11.174Z,100811.53
2022-08-23T07:41:39.270Z,100831.31
2022-08-23T07:44:08.848Z,100831.28
2022-08-23T07:46:37.329Z,100822.34
2022-08-23T07:49:05.111Z,100812.09
2022-08-23T07:51:37.723Z,100824.16
2022-08-23T07:54:07.231Z,100841.72
2022-08-23T07:56:39.512Z,100831.53
2022-08-23T07:59:14.338Z,100827.25
2022-08-23T08:02:00.246Z,100847.47
2022-08-23T08:04:28.280Z,100813.34
2022-08-23T08:07:17.832Z,100833.19
2022-08-23T08:09:47.328Z,100838.13
2022-08-23T08:12:16.745Z,100827.75
2022-08-23T08:14:45.018Z,100833.84
2022-08-23T08:17:16.084Z,100829.88
2022-08-23T08:20:20.149Z,100833.75
2022-08-23T08:23:06.610Z,100843.00
2022-08-23T08:26:05.711Z,100817.53
2022-08-23T08:28:34.692Z,100817.06
2022-08-23T08:31:03.030Z,100825.25
2022-08-23T08:33:34.341Z,100827.75
2022-08-23T08:36:04.618Z,100834.84
2022-08-23T08:38:36.829Z,100814.28
2022-08-23T08:41:15.836Z,100811.69
2022-08-23T08:43:55.573Z,100804.66
2022-08-23T08:46:25.930Z,100822.16
2022-08-23T08:48:54.803Z,100811.88
2022-08-23T08:51:35.320Z,100837.34
2022-08-23T08:54:03.934Z,100810.09
2022-08-23T08:56:38.980Z,100802.75
2022-08-23T08:59:22.013Z,100816.41
2022-08-23T09:01:49.824Z,100796.78
2022-08-23T09:04:23.858Z,100807.97
2022-08-23T09:06:51.338Z,100799.53
2022-08-23T09:09:23.231Z,100789.22
2022-08-23T09:11:55.400Z,100797.25
2022-08-23T09:14:23.364Z,100786.13
2022-08-23T09:16:52.644Z,100800.50
2022-08-23T09:19:21.002Z,100777.41
2022-08-23T09:21:54.814Z,100791.25
2022-08-23T09:24:22.882Z,100785.59
2022-08-23T09:27:11.839Z,100788.16
2022-08-23T09:29:40.243Z,100784.47
2022-08-23T09:32:27.706Z,100796.06
2022-08-23T09:35:06.263Z,100801.22
2022-08-23T09:37:46.051Z,100819.53
2022-08-23T09:40:16.865Z,100793.81
2022-08-23T09:42:47.528Z,100792.72
2022-08-23T09:45:52.040Z,100786.13
2022-08-23T09:48:42.411Z,100794.72
2022-08-23T09:51:18.037Z,100771.53
2022-08-23T09:53:50.392Z,100793.13
2022-08-23T09:56:19.966Z,100799.84
2022-08-23T09:58:50.777Z,100782.53
2022-08-23T10:01:29.386Z,100808.16
2022-08-23T10:04:12.942Z,100811.13
2022-08-23T10:06:42.335Z,100816.22
2022-08-23T10:09:11.678Z,100792.75
2022-08-23T10:11:47.703Z,100799.22
2022-08-23T10:14:18.047Z,100814.56
2022-08-23T10:16:58.118Z,100798.38
2022-08-23T10:19:26.323Z,100821.88
2022-08-23T10:21:54.624Z,100799.31
2022-08-23T10:24:26.649Z,100784.84
2022-08-23T10:27:01.355Z,100804.63
2022-08-23T10:29:38.004Z,100782.44
2022-08-23T10:32:28.195Z,100791.88
2022-08-23T10:35:04.411Z,100805.03
2022-08-23T10:37:42.591Z,100765.97
2022-08-23T10:40:15.240Z,100779.97
2022-08-23T10:43:02.115Z,100792.22
2022-08-23T10:45:35.989Z,100784.53
2022-08-23T10:48:09.478Z,100773.38
2022-08-23T10:50:55.541Z,100798.47
2022-08-23T10:53:27.436Z,100759.47
2022-08-23T10:56:05.198Z,100774.94
2022-08-23T10:58:41.738Z,100787.13
2022-08-23T11:01:09.707Z,100766.13
2022-08-23T11:03:40.928Z,100773.03
2022-08-23T11:06:27.922Z,100784.88
2022-08-23T11:09:02.856Z,100769.56
2022-08-23T11:11:37.867Z,100791.84
2022-08-23T11:14:06.442Z,100785.25
2022-08-23T11:16:34.480Z,100782.25
2022-08-23T11:19:02.598Z,100783.09
2022-08-23T11:21:37.701Z,100762.09
2022-08-23T11:24:07.883Z,100760.88
2022-08-23T11:26:41.490Z,100774.06
2022-08-23T11:29:22.161Z,100769.28
2022-08-23T11:32:01.681Z,100766.66
2022-08-23T11:34:34.033Z,100773.16
2022-08-23T11:37:19.888Z,100766.63
2022-08-23T11:39:58.165Z,100762.19
2022-08-23T11:42:32.902Z,100766.47
2022-08-23T11:45:24.044Z,100766.72
2022-08-23T11:48:09.178Z,100775.09
2022-08-23T11:50:58.061Z,100764.72
2022-08-23T11:53:42.629Z,100762.75
2022-08-23T11:56:16.472Z,100752.88
2022-08-23T11:58:44.027Z,100768.25
2022-08-23T12:01:12.599Z,100756.84
2022-08-23T12:04:00.075Z,100752.75
2022-08-23T12:06:53.077Z,100746.13
2022-08-23T12:09:21.262Z,100752.91
2022-08-23T12:12:06.643Z,100759.38
2022-08-23T12:14:55.119Z,100742.34
2022-08-23T12:17:26.593Z,100744.03
2022-08-23T12:20:06.353Z,100739.56
2022-08-23T12:22:56.803Z,100764.06
2022-08-23T12:25:24.435Z,100746.31
2022-08-23T12:28:02.364Z,100774.53
2022-08-23T12:30:34.015Z,100756.53
2022-08-23T12:33:13.668Z,100754.16
2022-08-23T12:35:50.559Z,100737.22
2022-08-23T12:38:27.409Z,100731.56
2022-08-23T12:40:55.125Z,100742.63
2022-08-23T12:43:23.376Z,100745.16
2022-08-23T12:45:52.478Z,100743.66
2022-08-23T12:48:21.391Z,100759.72
2022-08-23T12:50:53.692Z,100767.00
2022-08-23T12:53:31.352Z,100745.50
2022-08-23T12:56:00.105Z,100726.41
2022-08-23T12:58:31.715Z,100736.47
2022-08-23T13:01:04.111Z,100737.78
2022-08-23T13:03:36.158Z,100726.47
2022-08-23T13:06:07.036Z,100749.38
2022-08-23T13:08:45.461Z,100738.13
2022-08-23T13:11:14.187Z,100727.75
2022-08-23T13:13:42.527Z,100745.28
2022-08-23T13:16:27.247Z,100761.53
2022-08-23T13:18:56.321Z,100741.00
2022-08-23T13:21:23.786Z,100740.56
2022-08-23T13:23:51.889Z,100750.78
2022-08-23T13:26:37.986Z,100745.50
2022-08-23T13:29:09.843Z,100741.84
2022-08-23T13:31:59.289Z,100741.22
2022-08-23T13:34:32.081Z,100742.41
2022-08-23T13:36:59.952Z,100738.78
2022-08-23T13:39:28.108Z,100755.75
2022-08-23T13:41:55.953Z,100749.47
2022-08-23T13:44:23.563Z,100747.06
2022-08-23T13:46:51.221Z,100738.91
2022-08-23T13:49:21.503Z,100740.91
2022-08-23T13:52:18.675Z,100754.81
2022-08-23T13:54:51.235Z,100738.69
2022-08-23T13:57:20.491Z,100731.59
2022-08-23T13:59:52.418Z,100727.66
2022-08-23T14:02:21.216Z,100731.47
2022-08-23T14:04:48.810Z,100716.63
2022-08-23T14:07:16.661Z,100723.97
2022-08-23T14:09:44.151Z,100725.13
2022-08-23T14:12:13.452Z,100745.59
2022-08-23T14:14:41.031Z,100723.03
2022-08-23T14:17:10.687Z,100729.16
2022-08-23T14:20:33.046Z,100735.66
2022-08-23T14:22:28.280Z,100718.88
2022-08-23T14:24:55.765Z,100715.53
2022-08-23T14:27:23.207Z,100724.84
2022-08-23T14:29:50.707Z,100725.22
2022-08-23T14:32:18.083Z,100720.72
2022-08-23T14:34:45.647Z,100710.50
2022-08-23T14:38:02.991Z,100723.50
2022-08-23T14:40:02.294Z,100718.22
2022-08-23T14:42:30.264Z,100711.19
2022-08-23T14:44:58.007Z,100709.94
2022-08-23T14:47:25.936Z,100713.22
2022-08-23T14:49:54.133Z,100710.69
2022-08-23T14:52:21.865Z,100710.16
2022-08-23T14:54:50.063Z,100715.38
2022-08-23T14:57:19.050Z,100707.63
2022-08-23T14:59:46.753Z,100720.69
2022-08-23T15:02:14.135Z,100713.66
2022-08-23T15:04:42.312Z,100720.59
2022-08-23T15:07:18.933Z,100716.09
2022-08-23T15:09:47.678Z,100722.44
2022-08-23T15:15:04.512Z,100716.66
2022-08-23T15:17:35.282Z,100720.38
2022-08-23T15:20:03.204Z,100723.94
2022-08-23T15:22:30.703Z,100714.53
2022-08-23T15:24:58.463Z,100721.47
2022-08-23T15:27:25.984Z,100722.56
2022-08-23T15:29:53.643Z,100718.16
2022-08-23T15:32:22.538Z,100719.41
2022-08-23T15:34:50.785Z,100732.78
2022-08-23T15:37:18.380Z,100723.44
2022-08-23T15:39:46.333Z,100730.53
2022-08-23T15:42:18.529Z,100728.09
2022-08-23T15:44:50.109Z,100729.38
2022-08-23T15:47:22.334Z,100727.28
2022-08-23T15:49:50.009Z,100734.09
2022-08-23T15:52:20.155Z,100738.13
2022-08-23T15:54:47.748Z,100728.22
2022-08-23T15:57:16.135Z,100728.50
2022-08-23T15:59:43.863Z,100737.38
2022-08-23T16:02:11.329Z,100738.72
2022-08-23T16:04:39.692Z,100732.16
2022-08-23T16:07:07.830Z,100743.81
2022-08-23T16:09:36.025Z,100734.59
2022-08-23T16:12:04.782Z,100742.88
2022-08-23T16:14:35.508Z,100744.00
2022-08-23T16:17:03.279Z,100743.28
2022-08-23T16:19:31.287Z,100746.88
2022-08-23T16:22:00.438Z,100745.13
2022-08-23T16:24:27.947Z,100743.63
2022-08-23T16:26:55.428Z,100748.06
2022-08-23T16:29:48.601Z,100748.38
2022-08-23T16:32:16.046Z,100749.69
2022-08-23T16:34:43.733Z,100748.16
2022-08-23T16:37:11.338Z,100756.84
2022-08-23T16:39:38.784Z,100758.94
2022-08-23T16:42:06.985Z,100757.41
2022-08-23T16:44:34.442Z,100767.34
2022-08-23T16:47:02.354Z,100762.19
2022-08-23T16:49:29.952Z,100764.72
2022-08-23T16:51:57.514Z,100766.59
2022-08-23T16:54:25.225Z,100772.19
2022-08-23T16:56:52.804Z,100775.38
2022-08-23T16:59:20.345Z,100777.03
2022-08-23T17:01:47.854Z,100780.41
2022-08-23T17:04:15.718Z,100786.53
2022-08-23T17:06:43.921Z,100781.50
2022-08-23T17:09:12.213Z,100779.94
2022-08-23T17:11:40.605Z,100790.63
2022-08-23T17:14:08.815Z,100789.84
2022-08-23T17:16:37.623Z,100791.47
2022-08-23T17:19:05.184Z,100791.50
2022-08-23T17:21:32.694Z,100796.84
2022-08-23T17:24:00.235Z,100807.09
2022-08-23T17:26:27.657Z,100799.28
2022-08-23T17:28:56.621Z,100807.84
2022-08-23T17:31:24.405Z,100806.25
2022-08-23T17:33:51.923Z,100802.91
2022-08-23T17:36:39.820Z,100810.69
2022-08-23T17:39:08.027Z,100797.78
2022-08-23T17:41:35.844Z,100802.28
2022-08-23T17:44:04.389Z,100802.22
2022-08-23T17:46:34.414Z,100805.56
2022-08-23T17:49:01.977Z,100808.72
2022-08-23T17:51:29.907Z,100809.63
2022-08-23T17:53:57.328Z,100813.63
2022-08-23T17:56:24.836Z,100818.13
2022-08-23T17:58:55.356Z,100813.25
2022-08-23T18:01:22.928Z,100816.59
2022-08-23T18:03:50.385Z,100825.91
2022-08-23T18:06:18.324Z,100827.16
2022-08-23T18:08:46.123Z,100827.53
2022-08-23T18:11:13.977Z,100824.84
2022-08-23T18:13:41.599Z,100824.44
2022-08-23T18:16:09.271Z,100826.69
2022-08-23T18:18:38.058Z,100831.09
2022-08-23T18:21:06.065Z,100825.50
2022-08-23T18:23:34.009Z,100822.94
2022-08-23T18:26:08.421Z,100820.38
2022-08-23T18:28:35.918Z,100824.25
2022-08-23T18:31:06.729Z,100830.47
2022-08-23T18:33:46.983Z,100829.22
2022-08-23T18:36:15.724Z,100827.84
2022-08-23T18:38:43.400Z,100825.06
2022-08-23T18:41:12.336Z,100829.03
2022-08-23T18:43:40.104Z,100827.25
2022-08-23T18:46:08.755Z,100819.13
2022-08-23T18:48:36.453Z,100829.47
2022-08-23T18:51:04.364Z,100821.44
2022-08-23T18:53:32.015Z,100831.78
2022-08-23T18:55:59.754Z,100822.88
2022-08-23T18:58:27.505Z,100830.50
2022-08-23T19:00:56.323Z,100817.38
2022-08-23T19:03:23.974Z,100828.25
2022-08-23T19:05:52.100Z,100827.16
2022-08-23T19:08:19.666Z,100826.78
2022-08-23T19:11:25.957Z,100821.59
2022-08-23T19:14:19.547Z,100820.00
2022-08-23T19:16:48.524Z,100818.53
2022-08-23T19:19:35.277Z,100819.03
2022-08-23T19:22:03.868Z,100825.66
2022-08-23T19:24:39.059Z,100833.34
2022-08-23T19:27:15.196Z,100823.63
2022-08-23T19:29:45.699Z,100818.56
2022-08-23T19:32:14.112Z,100834.25
2022-08-23T19:34:42.325Z,100826.50
2022-08-23T19:37:10.806Z,100827.28
2022-08-23T19:39:50.164Z,100835.13
2022-08-23T19:42:18.500Z,100834.16
2022-08-23T19:44:45.976Z,100832.63
2022-08-23T19:47:19.611Z,100823.75
2022-08-23T19:49:48.676Z,100831.03
2022-08-23T19:52:16.222Z,100833.59
2022-08-23T19:54:43.856Z,100827.69
2022-08-23T19:57:11.893Z,100834.75
2022-08-23T19:59:39.570Z,100834.56
2022-08-23T20:02:07.228Z,100824.59
2022-08-23T20:04:34.997Z,100844.16
2022-08-23T20:07:03.460Z,100827.94
2022-08-23T20:09:31.740Z,100831.72
2022-08-23T20:11:59.507Z,100831.63
2022-08-23T20:14:27.284Z,100829.19
2022-08-23T20:16:55.474Z,100834.47
2022-08-23T20:19:23.077Z,100827.81
2022-08-23T20:21:50.586Z,100828.16
2022-08-23T20:24:28.793Z,100828.59
2022-08-23T20:27:06.193Z,100822.81
2022-08-23T20:29:34.263Z,100837.84
2022-08-23T20:32:06.232Z,100829.16
2022-08-23T20:34:34.535Z,100824.25
2022-08-23T20:37:05.395Z,100823.63
2022-08-23T20:39:33.032Z,100825.28
2022-08-23T20:42:00.946Z,100826.09
2022-08-23T20:44:28.429Z,100828.59
2022-08-23T20:47:00.970Z,100829.31
2022-08-23T20:49:30.298Z,100823.75
2022-08-23T20:51:57.761Z,100829.03
2022-08-23T20:54:25.216Z,100823.00
2022-08-23T20:56:52.615Z,100828.34
2022-08-23T20:59:20.296Z,100827.16
2022-08-23T21:01:48.176Z,100835.69
2022-08-23T21:04:15.742Z,100834.38
2022-08-23T21:06:46.384Z,100834.47
2022-08-23T21:09:17.138Z,100830.97
2022-08-23T21:11:45.526Z,100839.59
2022-08-23T21:14:15.210Z,100830.94
2022-08-23T21:16:43.837Z,100833.38
2022-08-23T21:19:11.599Z,100832.47
2022-08-23T21:21:39.048Z,100834.94
2022-08-23T21:24:06.954Z,100833.13
2022-08-23T21:26:34.854Z,100831.00
2022-08-23T21:29:03.295Z,100828.28
2022-08-23T21:31:31.853Z,100831.47
2022-08-23T21:34:00.657Z,100828.28
2022-08-23T21:36:28.337Z,100835.91
2022-08-23T21:38:55.777Z,100831.84
2022-08-23T21:41:27.890Z,100840.16
2022-08-23T21:43:55.349Z,100836.69
2022-08-23T21:46:23.433Z,100833.75
2022-08-23T21:48:50.992Z,100837.28
2022-08-23T21:51:18.399Z,100832.44
2022-08-23T21:53:46.808Z,100839.72
2022-08-23T21:56:14.366Z,100845.44
2022-08-23T21:58:41.738Z,100837.19
2022-08-23T22:01:09.643Z,100841.81
2022-08-23T22:03:37.551Z,100838.72
2022-08-23T22:06:05.360Z,100835.59
2022-08-23T22:08:34.164Z,100834.44
2022-08-23T22:11:06.340Z,100841.91
2022-08-23T22:13:35.410Z,100826.63
2022-08-23T22:16:03.192Z,100840.53
2022-08-23T22:18:31.204Z,100837.41
2022-08-23T22:20:58.757Z,100832.78
2022-08-23T22:23:26.843Z,100835.94
2022-08-23T22:26:00.693Z,100835.91
2022-08-23T22:28:31.339Z,100833.47
2022-08-23T22:31:00.626Z,100835.19
2022-08-23T22:33:28.198Z,100837.34
2022-08-23T22:35:55.644Z,100839.16
2022-08-23T22:38:22.977Z,100839.34
2022-08-23T22:40:50.678Z,100840.69
2022-08-23T22:43:18.780Z,100840.84
2022-08-23T22:45:50.562Z,100841.38
2022-08-23T22:48:18.239Z,100848.78
2022-08-23T22:50:46.364Z,100833.28
2022-08-23T22:53:14.380Z,100836.41
2022-08-23T22:55:42.172Z,100847.59
2022-08-23T22:58:09.612Z,100843.72
2022-08-23T23:00:41.317Z,100836.59
2022-08-23T23:03:09.585Z,100836.28
2022-08-23T23:05:38.241Z,100839.66
2022-08-23T23:08:26.005Z,100855.00
2022-08-23T23:11:00.673Z,100841.28
2022-08-23T23:13:29.491Z,100839.09
2022-08-23T23:15:57.136Z,100849.50
2022-08-23T23:18:24.959Z,100852.88
2022-08-23T23:20:52.411Z,100848.22
2022-08-23T23:23:20.692Z,100861.00
2022-08-23T23:25:48.408Z,100852.66
2022-08-23T23:28:16.436Z,100868.16
2022-08-23T23:30:44.959Z,100846.19
2022-08-23T23:33:12.462Z,100861.41
2022-08-23T23:35:40.242Z,100861.38
2022-08-23T23:38:07.875Z,100863.84
2022-08-23T23:40:35.905Z,100858.72
2022-08-23T23:43:03.555Z,100867.16
2022-08-23T23:45:31.071Z,100870.50
2022-08-23T23:47:58.535Z,100862.53
2022-08-23T23:50:27.093Z,100872.34
2022-08-23T23:52:54.714Z,100872.00
2022-08-23T23:55:22.843Z,100871.19
2022-08-23T23:57:50.249Z,100887.22
